sensor_id;sensor_type;location;lat;lon;timestamp;pressure;altitude;pressure_sealevel;temperature;humidity
84289;BME280;75147;50.294;18.660;2024-03-06T00:00:25;99307.81;;;2.45;86.82
84289;BME280;75147;50.294;18.660;2024-03-06T00:02:51;99306.16;;;2.44;87.35
84289;BME280;75147;50.294;18.660;2024-03-06T00:05:16;99308.72;;;2.44;87.87
84289;BME280;75147;50.294;18.660;2024-03-06T00:07:42;99306.97;;;2.44;87.37
84289;BME280;75147;50.294;18.660;2024-03-06T00:10:07;99305.41;;;2.42;87.46
84289;BME280;75147;50.294;18.660;2024-03-06T00:12:33;99314.75;;;2.43;87.30
84289;BME280;75147;50.294;18.660;2024-03-06T00:14:59;99306.31;;;2.40;87.37
84289;BME280;75147;50.294;18.660;2024-03-06T00:17:25;99307.19;;;2.39;87.56
84289;BME280;75147;50.294;18.660;2024-03-06T00:19:50;99311.47;;;2.39;87.41
84289;BME280;75147;50.294;18.660;2024-03-06T00:22:16;99313.28;;;2.37;87.51
84289;BME280;75147;50.294;18.660;2024-03-06T00:24:42;99312.44;;;2.36;87.54
84289;BME280;75147;50.294;18.660;2024-03-06T00:27:07;99309.97;;;2.35;87.58
84289;BME280;75147;50.294;18.660;2024-03-06T00:29:33;99307.78;;;2.26;87.33
84289;BME280;75147;50.294;18.660;2024-03-06T00:32:01;99318.66;;;2.31;87.07
84289;BME280;75147;50.294;18.660;2024-03-06T00:34:27;99316.25;;;2.28;87.75
84289;BME280;75147;50.294;18.660;2024-03-06T00:36:53;99323.94;;;2.28;87.47
84289;BME280;75147;50.294;18.660;2024-03-06T00:39:19;99318.22;;;2.21;87.35
84289;BME280;75147;50.294;18.660;2024-03-06T00:41:45;99320.06;;;2.18;87.53
84289;BME280;75147;50.294;18.660;2024-03-06T00:44:10;99321.94;;;2.14;87.53
84289;BME280;75147;50.294;18.660;2024-03-06T00:46:36;99330.53;;;2.13;87.41
84289;BME280;75147;50.294;18.660;2024-03-06T00:49:01;99333.09;;;2.13;87.13
84289;BME280;75147;50.294;18.660;2024-03-06T00:51:26;99329.84;;;2.10;87.65
84289;BME280;75147;50.294;18.660;2024-03-06T00:53:52;99324.00;;;2.06;87.48
84289;BME280;75147;50.294;18.660;2024-03-06T00:56:17;99333.19;;;2.10;87.40
84289;BME280;75147;50.294;18.660;2024-03-06T00:58:43;99335.06;;;2.07;88.38
84289;BME280;75147;50.294;18.660;2024-03-06T01:01:08;99330.91;;;2.04;87.46
84289;BME280;75147;50.294;18.660;2024-03-06T01:03:34;99325.78;;;2.04;87.56
84289;BME280;75147;50.294;18.660;2024-03-06T01:06:00;99335.13;;;2.05;87.51
84289;BME280;75147;50.294;18.660;2024-03-06T01:08:25;99338.72;;;2.01;87.58
84289;BME280;75147;50.294;18.660;2024-03-06T01:10:51;99338.72;;;2.01;87.72
84289;BME280;75147;50.294;18.660;2024-03-06T01:13:17;99348.06;;;2.02;87.49
84289;BME280;75147;50.294;18.660;2024-03-06T01:15:43;99351.53;;;2.01;87.64
84289;BME280;75147;50.294;18.660;2024-03-06T01:18:09;99351.59;;;1.99;88.01
84289;BME280;75147;50.294;18.660;2024-03-06T01:20:34;99344.78;;;1.98;87.35
84289;BME280;75147;50.294;18.660;2024-03-06T01:22:59;99350.94;;;1.94;87.43
84289;BME280;75147;50.294;18.660;2024-03-06T01:25:25;99355.28;;;1.92;87.82
84289;BME280;75147;50.294;18.660;2024-03-06T01:27:50;99356.38;;;1.87;87.80
84289;BME280;75147;50.294;18.660;2024-03-06T01:30:16;99357.50;;;1.80;87.76
84289;BME280;75147;50.294;18.660;2024-03-06T01:32:42;99354.31;;;1.75;87.83
84289;BME280;75147;50.294;18.660;2024-03-06T01:35:07;99362.28;;;1.67;87.53
84289;BME280;75147;50.294;18.660;2024-03-06T01:37:33;99360.81;;;1.62;86.95
84289;BME280;75147;50.294;18.660;2024-03-06T01:39:58;99363.47;;;1.58;87.29
84289;BME280;75147;50.294;18.660;2024-03-06T01:42:24;99363.84;;;1.49;87.44
84289;BME280;75147;50.294;18.660;2024-03-06T01:44:49;99361.28;;;1.49;87.07
84289;BME280;75147;50.294;18.660;2024-03-06T01:47:15;99367.38;;;1.45;86.97
84289;BME280;75147;50.294;18.660;2024-03-06T01:49:41;99368.34;;;1.43;87.28
84289;BME280;75147;50.294;18.660;2024-03-06T01:52:09;99359.09;;;1.39;87.54
84289;BME280;75147;50.294;18.660;2024-03-06T01:54:37;99365.06;;;1.39;87.99
84289;BME280;75147;50.294;18.660;2024-03-06T01:57:03;99371.16;;;1.37;87.65
84289;BME280;75147;50.294;18.660;2024-03-06T01:59:29;99373.72;;;1.37;87.82
84289;BME280;75147;50.294;18.660;2024-03-06T02:01:55;99375.44;;;1.36;87.79
84289;BME280;75147;50.294;18.660;2024-03-06T02:04:22;99371.19;;;1.35;87.65
84289;BME280;75147;50.294;18.660;2024-03-06T02:06:48;99374.69;;;1.33;88.04
84289;BME280;75147;50.294;18.660;2024-03-06T02:09:14;99362.09;;;1.28;88.16
84289;BME280;75147;50.294;18.660;2024-03-06T02:11:40;99364.66;;;1.28;88.32
84289;BME280;75147;50.294;18.660;2024-03-06T02:14:07;99368.97;;;1.26;88.01
84289;BME280;75147;50.294;18.660;2024-03-06T02:16:35;99365.72;;;1.23;88.35
84289;BME280;75147;50.294;18.660;2024-03-06T02:19:01;99367.44;;;1.22;88.21
84289;BME280;75147;50.294;18.660;2024-03-06T02:21:26;99356.59;;;1.15;88.40
84289;BME280;75147;50.294;18.660;2024-03-06T02:23:52;99365.22;;;1.13;88.09
84289;BME280;75147;50.294;18.660;2024-03-06T02:26:18;99357.66;;;1.10;87.94
84289;BME280;75147;50.294;18.660;2024-03-06T02:28:50;99369.66;;;1.08;87.92
84289;BME280;75147;50.294;18.660;2024-03-06T02:31:16;99374.06;;;1.04;88.52
84289;BME280;75147;50.294;18.660;2024-03-06T02:33:43;99377.56;;;1.02;88.21
84289;BME280;75147;50.294;18.660;2024-03-06T02:36:09;99377.78;;;0.96;88.40
84289;BME280;75147;50.294;18.660;2024-03-06T02:38:35;99375.56;;;0.87;88.70
84289;BME280;75147;50.294;18.660;2024-03-06T02:41:02;99373.22;;;0.80;88.61
84289;BME280;75147;50.294;18.660;2024-03-06T02:43:27;99368.31;;;0.74;88.90
84289;BME280;75147;50.294;18.660;2024-03-06T02:45:52;99371.97;;;0.67;88.68
84289;BME280;75147;50.294;18.660;2024-03-06T02:48:18;99368.75;;;0.62;89.28
84289;BME280;75147;50.294;18.660;2024-03-06T02:50:43;99369.75;;;0.58;88.85
84289;BME280;75147;50.294;18.660;2024-03-06T02:53:09;99367.34;;;0.54;89.31
84289;BME280;75147;50.294;18.660;2024-03-06T02:55:34;99359.00;;;0.49;89.33
84289;BME280;75147;50.294;18.660;2024-03-06T02:58:03;99366.06;;;0.42;89.49
84289;BME280;75147;50.294;18.660;2024-03-06T03:00:29;99369.53;;;0.39;89.56
84289;BME280;75147;50.294;18.660;2024-03-06T03:02:55;99365.47;;;0.34;89.24
84289;BME280;75147;50.294;18.660;2024-03-06T03:05:21;99366.47;;;0.30;89.30
84289;BME280;75147;50.294;18.660;2024-03-06T03:07:46;99357.94;;;0.31;89.69
84289;BME280;75147;50.294;18.660;2024-03-06T03:10:12;99363.78;;;0.33;89.98
84289;BME280;75147;50.294;18.660;2024-03-06T03:12:40;99363.78;;;0.33;90.06
84289;BME280;75147;50.294;18.660;2024-03-06T03:15:07;99373.94;;;0.36;89.84
84289;BME280;75147;50.294;18.660;2024-03-06T03:17:32;99373.94;;;0.36;89.98
84289;BME280;75147;50.294;18.660;2024-03-06T03:19:59;99373.84;;;0.39;90.54
84289;BME280;75147;50.294;18.660;2024-03-06T03:22:24;99363.50;;;0.42;90.26
84289;BME280;75147;50.294;18.660;2024-03-06T03:24:50;99366.84;;;0.44;90.23
84289;BME280;75147;50.294;18.660;2024-03-06T03:27:15;99377.06;;;0.44;90.22
84289;BME280;75147;50.294;18.660;2024-03-06T03:29:41;99371.94;;;0.44;90.55
84289;BME280;75147;50.294;18.660;2024-03-06T03:32:06;99370.28;;;0.43;90.23
84289;BME280;75147;50.294;18.660;2024-03-06T03:34:34;99377.81;;;0.46;90.60
84289;BME280;75147;50.294;18.660;2024-03-06T03:37:00;99378.75;;;0.45;90.43
84289;BME280;75147;50.294;18.660;2024-03-06T03:39:26;99368.59;;;0.42;90.85
84289;BME280;75147;50.294;18.660;2024-03-06T03:41:52;99372.03;;;0.41;90.42
84289;BME280;75147;50.294;18.660;2024-03-06T03:44:18;99370.28;;;0.43;90.59
84289;BME280;75147;50.294;18.660;2024-03-06T03:46:44;99366.06;;;0.42;90.53
84289;BME280;75147;50.294;18.660;2024-03-06T03:49:10;99373.75;;;0.40;90.61
84289;BME280;75147;50.294;18.660;2024-03-06T03:51:37;99369.66;;;0.36;90.30
84289;BME280;75147;50.294;18.660;2024-03-06T03:54:03;99376.41;;;0.39;90.19
84289;BME280;75147;50.294;18.660;2024-03-06T03:56:28;99384.22;;;0.33;90.58
84289;BME280;75147;50.294;18.660;2024-03-06T03:58:54;99382.63;;;0.30;90.37
84289;BME280;75147;50.294;18.660;2024-03-06T04:01:20;99380.13;;;0.29;90.62
84289;BME280;75147;50.294;18.660;2024-03-06T04:03:45;99387.06;;;0.25;90.30
84289;BME280;75147;50.294;18.660;2024-03-06T04:06:11;99390.50;;;0.24;90.47
84289;BME280;75147;50.294;18.660;2024-03-06T04:08:36;99392.25;;;0.22;90.25
84289;BME280;75147;50.294;18.660;2024-03-06T04:11:03;99391.38;;;0.23;90.44
84289;BME280;75147;50.294;18.660;2024-03-06T04:13:29;99388.16;;;0.18;90.17
84289;BME280;75147;50.294;18.660;2024-03-06T04:15:54;99389.75;;;0.21;90.37
84289;BME280;75147;50.294;18.660;2024-03-06T04:18:20;99392.38;;;0.19;90.05
84289;BME280;75147;50.294;18.660;2024-03-06T04:20:46;99397.53;;;0.18;90.15
84289;BME280;75147;50.294;18.660;2024-03-06T04:23:11;99389.88;;;0.18;90.40
84289;BME280;75147;50.294;18.660;2024-03-06T04:25:37;99404.25;;;0.20;90.49
84289;BME280;75147;50.294;18.660;2024-03-06T04:28:04;99400.13;;;0.16;90.09
84289;BME280;75147;50.294;18.660;2024-03-06T04:30:29;99410.25;;;0.19;90.34
84289;BME280;75147;50.294;18.660;2024-03-06T04:32:55;99410.34;;;0.16;90.49
84289;BME280;75147;50.294;18.660;2024-03-06T04:35:20;99409.50;;;0.16;90.25
84289;BME280;75147;50.294;18.660;2024-03-06T04:37:46;99408.63;;;0.17;90.17
84289;BME280;75147;50.294;18.660;2024-03-06T04:40:11;99416.38;;;0.14;90.37
84289;BME280;75147;50.294;18.660;2024-03-06T04:42:40;99412.19;;;0.13;90.29
84289;BME280;75147;50.294;18.660;2024-03-06T04:45:11;99408.00;;;0.10;90.62
84289;BME280;75147;50.294;18.660;2024-03-06T04:47:37;99410.78;;;0.03;90.17
84289;BME280;75147;50.294;18.660;2024-03-06T04:50:03;99416.06;;;-0.02;89.88
84289;BME280;75147;50.294;18.660;2024-03-06T04:52:28;99422.94;;;-0.06;90.04
84289;BME280;75147;50.294;18.660;2024-03-06T04:54:54;99414.53;;;-0.08;90.12
84289;BME280;75147;50.294;18.660;2024-03-06T04:57:19;99413.81;;;-0.13;90.24
84289;BME280;75147;50.294;18.660;2024-03-06T04:59:45;99417.28;;;-0.14;90.17
84289;BME280;75147;50.294;18.660;2024-03-06T05:02:10;99430.22;;;-0.20;89.58
84289;BME280;75147;50.294;18.660;2024-03-06T05:04:35;99421.78;;;-0.22;89.99
84289;BME280;75147;50.294;18.660;2024-03-06T05:07:01;99425.13;;;-0.20;89.99
84289;BME280;75147;50.294;18.660;2024-03-06T05:09:27;99427.84;;;-0.26;89.86
84289;BME280;75147;50.294;18.660;2024-03-06T05:11:52;99437.28;;;-0.28;90.05
84289;BME280;75147;50.294;18.660;2024-03-06T05:14:18;99429.66;;;-0.29;90.01
84289;BME280;75147;50.294;18.660;2024-03-06T05:16:43;99427.94;;;-0.29;89.86
84289;BME280;75147;50.294;18.660;2024-03-06T05:19:09;99427.97;;;-0.30;89.97
84289;BME280;75147;50.294;18.660;2024-03-06T05:21:36;99439.84;;;-0.28;90.00
84289;BME280;75147;50.294;18.660;2024-03-06T05:24:01;99435.59;;;-0.29;89.87
84289;BME280;75147;50.294;18.660;2024-03-06T05:26:27;99447.44;;;-0.26;90.02
84289;BME280;75147;50.294;18.660;2024-03-06T05:28:52;99444.06;;;-0.27;89.60
84289;BME280;75147;50.294;18.660;2024-03-06T05:31:19;99443.06;;;-0.23;89.88
84289;BME280;75147;50.294;18.660;2024-03-06T05:33:48;99449.84;;;-0.22;90.02
84289;BME280;75147;50.294;18.660;2024-03-06T05:36:17;99441.41;;;-0.24;89.96
84289;BME280;75147;50.294;18.660;2024-03-06T05:38:44;99448.13;;;-0.21;90.05
84289;BME280;75147;50.294;18.660;2024-03-06T05:41:09;99441.31;;;-0.21;90.00
84289;BME280;75147;50.294;18.660;2024-03-06T05:43:35;99443.00;;;-0.20;89.72
84289;BME280;75147;50.294;18.660;2024-03-06T05:46:00;99447.31;;;-0.22;89.36
84289;BME280;75147;50.294;18.660;2024-03-06T05:48:26;99445.66;;;-0.24;89.72
84289;BME280;75147;50.294;18.660;2024-03-06T05:50:52;99453.28;;;-0.23;89.86
84289;BME280;75147;50.294;18.660;2024-03-06T05:53:18;99460.09;;;-0.23;89.64
84289;BME280;75147;50.294;18.660;2024-03-06T05:55:43;99455.03;;;-0.25;89.46
84289;BME280;75147;50.294;18.660;2024-03-06T05:58:09;99447.50;;;-0.28;89.81
84289;BME280;75147;50.294;18.660;2024-03-06T06:00:34;99461.13;;;-0.29;89.76
84289;BME280;75147;50.294;18.660;2024-03-06T06:03:00;99456.09;;;-0.32;89.72
84289;BME280;75147;50.294;18.660;2024-03-06T06:05:25;99458.66;;;-0.32;89.75
84289;BME280;75147;50.294;18.660;2024-03-06T06:07:51;99462.16;;;-0.34;89.66
84289;BME280;75147;50.294;18.660;2024-03-06T06:10:17;99474.06;;;-0.35;89.69
84289;BME280;75147;50.294;18.660;2024-03-06T06:12:42;99471.47;;;-0.33;89.83
84289;BME280;75147;50.294;18.660;2024-03-06T06:15:08;99463.63;;;-0.27;89.97
84289;BME280;75147;50.294;18.660;2024-03-06T06:17:34;99481.44;;;-0.26;89.76
84289;BME280;75147;50.294;18.660;2024-03-06T06:19:59;99472.00;;;-0.22;90.00
84289;BME280;75147;50.294;18.660;2024-03-06T06:22:27;99471.16;;;-0.23;90.07
84289;BME280;75147;50.294;18.660;2024-03-06T06:24:53;99477.09;;;-0.22;89.95
84289;BME280;75147;50.294;18.660;2024-03-06T06:27:20;99472.06;;;-0.25;89.78
84289;BME280;75147;50.294;18.660;2024-03-06T06:29:45;99467.09;;;-0.30;89.72
84289;BME280;75147;50.294;18.660;2024-03-06T06:32:11;99484.00;;;-0.26;89.93
84289;BME280;75147;50.294;18.660;2024-03-06T06:34:36;99476.34;;;-0.26;89.85
84289;BME280;75147;50.294;18.660;2024-03-06T06:37:02;99484.78;;;-0.24;89.83
84289;BME280;75147;50.294;18.660;2024-03-06T06:39:27;99487.38;;;-0.25;89.45
84289;BME280;75147;50.294;18.660;2024-03-06T06:41:53;99493.44;;;-0.28;89.49
84289;BME280;75147;50.294;18.660;2024-03-06T06:44:18;99485.81;;;-0.29;89.49
84289;BME280;75147;50.294;18.660;2024-03-06T06:46:44;99484.06;;;-0.27;89.26
84289;BME280;75147;50.294;18.660;2024-03-06T06:49:09;99482.19;;;-0.22;89.32
84289;BME280;75147;50.294;18.660;2024-03-06T06:51:34;99483.88;;;-0.21;89.41
84289;BME280;75147;50.294;18.660;2024-03-06T06:54:00;99482.16;;;-0.21;89.25
84289;BME280;75147;50.294;18.660;2024-03-06T06:56:26;99480.47;;;-0.22;89.23
84289;BME280;75147;50.294;18.660;2024-03-06T06:58:52;99479.66;;;-0.22;89.20
84289;BME280;75147;50.294;18.660;2024-03-06T07:01:18;99477.75;;;-0.16;89.61
84289;BME280;75147;50.294;18.660;2024-03-06T07:03:46;99488.69;;;-0.12;89.22
84289;BME280;75147;50.294;18.660;2024-03-06T07:06:12;99480.13;;;-0.10;89.22
84289;BME280;75147;50.294;18.660;2024-03-06T07:08:37;99486.66;;;-0.01;89.22
84289;BME280;75147;50.294;18.660;2024-03-06T07:11:03;99481.28;;;0.07;88.89
84289;BME280;75147;50.294;18.660;2024-03-06T07:13:28;99487.97;;;0.12;88.99
84289;BME280;75147;50.294;18.660;2024-03-06T07:15:54;99485.16;;;0.20;89.04
84289;BME280;75147;50.294;18.660;2024-03-06T07:18:19;99486.53;;;0.30;88.88
84289;BME280;75147;50.294;18.660;2024-03-06T07:20:45;99484.63;;;0.36;89.15
84289;BME280;75147;50.294;18.660;2024-03-06T07:23:10;99494.66;;;0.43;88.84
84289;BME280;75147;50.294;18.660;2024-03-06T07:25:36;99493.59;;;0.48;88.79
84289;BME280;75147;50.294;18.660;2024-03-06T07:28:02;99489.13;;;0.55;88.34
84289;BME280;75147;50.294;18.660;2024-03-06T07:30:27;99496.59;;;0.61;88.58
84289;BME280;75147;50.294;18.660;2024-03-06T07:32:54;99502.47;;;0.64;88.28
84289;BME280;75147;50.294;18.660;2024-03-06T07:35:20;99496.41;;;0.67;88.28
84289;BME280;75147;50.294;18.660;2024-03-06T07:37:45;99503.97;;;0.70;87.93
84289;BME280;75147;50.294;18.660;2024-03-06T07:40:12;99502.94;;;0.75;87.85
84289;BME280;75147;50.294;18.660;2024-03-06T07:42:37;99506.97;;;0.83;87.89
84289;BME280;75147;50.294;18.660;2024-03-06T07:45:05;99500.84;;;0.87;87.83
84289;BME280;75147;50.294;18.660;2024-03-06T07:47:30;99509.25;;;0.90;88.03
84289;BME280;75147;50.294;18.660;2024-03-06T07:49:56;99508.22;;;0.96;87.79
84289;BME280;75147;50.294;18.660;2024-03-06T07:52:21;99512.91;;;1.08;87.89
84289;BME280;75147;50.294;18.660;2024-03-06T07:54:47;99517.81;;;1.14;87.62
84289;BME280;75147;50.294;18.660;2024-03-06T07:57:12;99517.47;;;1.25;87.60
84289;BME280;75147;50.294;18.660;2024-03-06T07:59:37;99508.59;;;1.33;87.41
84289;BME280;75147;50.294;18.660;2024-03-06T08:02:03;99513.50;;;1.39;87.79
84289;BME280;75147;50.294;18.660;2024-03-06T08:04:30;99513.19;;;1.48;87.33
84289;BME280;75147;50.294;18.660;2024-03-06T08:06:55;99515.47;;;1.56;87.09
84289;BME280;75147;50.294;18.660;2024-03-06T08:09:21;99511.66;;;1.66;87.25
84289;BME280;75147;50.294;18.660;2024-03-06T08:11:46;99515.72;;;1.72;86.34
84289;BME280;75147;50.294;18.660;2024-03-06T08:14:11;99523.78;;;1.84;86.58
84289;BME280;75147;50.294;18.660;2024-03-06T08:16:39;99525.41;;;1.87;86.20
84289;BME280;75147;50.294;18.660;2024-03-06T08:19:05;99518.38;;;1.92;86.15
84289;BME280;75147;50.294;18.660;2024-03-06T08:21:30;99527.66;;;1.96;85.36
84289;BME280;75147;50.294;18.660;2024-03-06T08:23:56;99505.19;;;2.03;85.59
84289;BME280;75147;50.294;18.660;2024-03-06T08:26:22;99522.66;;;2.15;85.24
84289;BME280;75147;50.294;18.660;2024-03-06T08:28:48;99518.78;;;2.26;84.59
84289;BME280;75147;50.294;18.660;2024-03-06T08:31:14;99515.91;;;2.34;84.50
84289;BME280;75147;50.294;18.660;2024-03-06T08:33:39;99521.50;;;2.44;84.47
84289;BME280;75147;50.294;18.660;2024-03-06T08:36:05;99514.28;;;2.53;84.16
84289;BME280;75147;50.294;18.660;2024-03-06T08:38:30;99517.38;;;2.61;83.39
84289;BME280;75147;50.294;18.660;2024-03-06T08:40:56;99525.97;;;2.60;82.89
84289;BME280;75147;50.294;18.660;2024-03-06T08:43:21;99509.59;;;2.63;82.78
84289;BME280;75147;50.294;18.660;2024-03-06T08:45:47;99512.94;;;2.65;82.48
84289;BME280;75147;50.294;18.660;2024-03-06T08:48:12;99513.66;;;2.68;82.38
84289;BME280;75147;50.294;18.660;2024-03-06T08:50:38;99517.06;;;2.69;82.22
84289;BME280;75147;50.294;18.660;2024-03-06T08:53:04;99509.97;;;2.75;81.68
84289;BME280;75147;50.294;18.660;2024-03-06T08:55:29;99520.72;;;2.84;81.52
84289;BME280;75147;50.294;18.660;2024-03-06T08:58:02;99514.63;;;2.86;81.52
84289;BME280;75147;50.294;18.660;2024-03-06T09:00:27;99517.16;;;2.88;80.65
84289;BME280;75147;50.294;18.660;2024-03-06T09:02:53;99509.44;;;2.88;80.72
84289;BME280;75147;50.294;18.660;2024-03-06T09:05:18;99522.91;;;2.93;80.44
84289;BME280;75147;50.294;18.660;2024-03-06T09:07:45;99517.59;;;2.97;80.87
84289;BME280;75147;50.294;18.660;2024-03-06T09:10:11;99520.03;;;3.00;80.54
84289;BME280;75147;50.294;18.660;2024-03-06T09:12:37;99518.22;;;3.02;80.22
84289;BME280;75147;50.294;18.660;2024-03-06T09:15:03;99518.88;;;3.07;80.36
84289;BME280;75147;50.294;18.660;2024-03-06T09:17:29;99512.59;;;3.14;80.28
84289;BME280;75147;50.294;18.660;2024-03-06T09:19:55;99507.25;;;3.19;80.05
84289;BME280;75147;50.294;18.660;2024-03-06T09:22:20;99516.41;;;3.25;79.59
84289;BME280;75147;50.294;18.660;2024-03-06T09:24:46;99514.56;;;3.28;79.41
84289;BME280;75147;50.294;18.660;2024-03-06T09:27:13;99507.44;;;3.35;78.90
84289;BME280;75147;50.294;18.660;2024-03-06T09:29:39;99502.88;;;3.41;78.93
84289;BME280;75147;50.294;18.660;2024-03-06T09:32:06;99503.28;;;3.51;78.72
84289;BME280;75147;50.294;18.660;2024-03-06T09:34:31;99502.03;;;3.59;78.20
84289;BME280;75147;50.294;18.660;2024-03-06T09:36:57;99509.13;;;3.73;77.95
84289;BME280;75147;50.294;18.660;2024-03-06T09:39:22;99503.56;;;3.82;77.18
84289;BME280;75147;50.294;18.660;2024-03-06T09:41:49;99501.41;;;3.92;76.71
84289;BME280;75147;50.294;18.660;2024-03-06T09:44:16;99497.44;;;4.04;76.31
84289;BME280;75147;50.294;18.660;2024-03-06T09:46:46;99496.94;;;4.14;75.66
84289;BME280;75147;50.294;18.660;2024-03-06T09:49:15;99498.19;;;4.24;75.34
84289;BME280;75147;50.294;18.660;2024-03-06T09:51:46;99495.09;;;4.35;74.78
84289;BME280;75147;50.294;18.660;2024-03-06T09:54:15;99503.41;;;4.40;72.56
84289;BME280;75147;50.294;18.660;2024-03-06T09:56:44;99496.41;;;4.44;72.06
84289;BME280;75147;50.294;18.660;2024-03-06T09:59:14;99494.13;;;4.55;71.93
84289;BME280;75147;50.294;18.660;2024-03-06T10:01:58;99505.78;;;4.62;71.21
84289;BME280;75147;50.294;18.660;2024-03-06T10:04:28;99496.25;;;4.64;70.53
84289;BME280;75147;50.294;18.660;2024-03-06T10:06:58;99496.72;;;4.72;71.20
84289;BME280;75147;50.294;18.660;2024-03-06T10:09:24;99498.09;;;4.79;70.29
84289;BME280;75147;50.294;18.660;2024-03-06T10:11:50;99496.47;;;4.94;71.00
84289;BME280;75147;50.294;18.660;2024-03-06T10:14:19;99507.09;;;5.05;69.51
84289;BME280;75147;50.294;18.660;2024-03-06T10:16:55;99501.31;;;5.17;69.23
84289;BME280;75147;50.294;18.660;2024-03-06T10:19:25;99496.44;;;5.28;68.96
84289;BME280;75147;50.294;18.660;2024-03-06T10:21:53;99503.00;;;5.34;68.19
84289;BME280;75147;50.294;18.660;2024-03-06T10:24:25;99506.09;;;5.40;68.94
84289;BME280;75147;50.294;18.660;2024-03-06T10:26:52;99499.44;;;5.36;67.18
84289;BME280;75147;50.294;18.660;2024-03-06T10:29:21;99495.03;;;5.38;67.84
84289;BME280;75147;50.294;18.660;2024-03-06T10:31:57;99506.69;;;5.45;68.93
84289;BME280;75147;50.294;18.660;2024-03-06T10:34:27;99501.97;;;5.53;67.76
84289;BME280;75147;50.294;18.660;2024-03-06T10:37:01;99501.66;;;5.59;68.29
84289;BME280;75147;50.294;18.660;2024-03-06T10:39:30;99510.47;;;5.55;68.62
84289;BME280;75147;50.294;18.660;2024-03-06T10:42:01;99508.03;;;5.52;68.38
84289;BME280;75147;50.294;18.660;2024-03-06T10:44:27;99511.09;;;5.43;67.62
84289;BME280;75147;50.294;18.660;2024-03-06T10:46:58;99514.59;;;5.42;67.85
84289;BME280;75147;50.294;18.660;2024-03-06T10:49:26;99512.78;;;5.44;68.29
84289;BME280;75147;50.294;18.660;2024-03-06T10:51:54;99510.94;;;5.46;67.18
84289;BME280;75147;50.294;18.660;2024-03-06T10:54:23;99522.00;;;5.48;67.67
84289;BME280;75147;50.294;18.660;2024-03-06T10:56:51;99514.34;;;5.47;68.18
84289;BME280;75147;50.294;18.660;2024-03-06T10:59:18;99522.38;;;5.41;67.54
84289;BME280;75147;50.294;18.660;2024-03-06T11:01:46;99513.06;;;5.38;68.78
84289;BME280;75147;50.294;18.660;2024-03-06T11:04:13;99517.56;;;5.35;68.69
84289;BME280;75147;50.294;18.660;2024-03-06T11:06:38;99519.59;;;5.28;69.14
84289;BME280;75147;50.294;18.660;2024-03-06T11:09:04;99512.28;;;5.20;69.29
84289;BME280;75147;50.294;18.660;2024-03-06T11:11:31;99512.50;;;5.16;69.56
84289;BME280;75147;50.294;18.660;2024-03-06T11:14:03;99511.03;;;5.12;69.94
84289;BME280;75147;50.294;18.660;2024-03-06T11:16:32;99512.06;;;5.08;70.35
84289;BME280;75147;50.294;18.660;2024-03-06T11:19:05;99497.09;;;4.99;71.06
84289;BME280;75147;50.294;18.660;2024-03-06T11:21:32;99509.13;;;4.98;71.14
84289;BME280;75147;50.294;18.660;2024-03-06T11:24:20;99511.84;;;4.95;71.90
84289;BME280;75147;50.294;18.660;2024-03-06T11:26:50;99502.94;;;4.85;71.58
84289;BME280;75147;50.294;18.660;2024-03-06T11:29:17;99497.56;;;4.72;71.97
84289;BME280;75147;50.294;18.660;2024-03-06T11:32:17;99494.59;;;4.63;72.61
84289;BME280;75147;50.294;18.660;2024-03-06T11:34:43;99494.97;;;4.55;73.60
84289;BME280;75147;50.294;18.660;2024-03-06T11:37:08;99499.34;;;4.53;73.80
84289;BME280;75147;50.294;18.660;2024-03-06T11:39:38;99500.09;;;4.55;74.32
84289;BME280;75147;50.294;18.660;2024-03-06T11:42:05;99503.59;;;4.54;74.99
84289;BME280;75147;50.294;18.660;2024-03-06T11:44:33;99492.91;;;4.45;75.33
84289;BME280;75147;50.294;18.660;2024-03-06T11:47:01;99491.47;;;4.39;76.55
84289;BME280;75147;50.294;18.660;2024-03-06T11:49:29;99497.59;;;4.36;77.21
84289;BME280;75147;50.294;18.660;2024-03-06T11:51:59;99493.41;;;4.34;77.78
84289;BME280;75147;50.294;18.660;2024-03-06T11:54:25;99498.56;;;4.34;78.51
84289;BME280;75147;50.294;18.660;2024-03-06T11:56:59;99500.22;;;4.35;79.30
84289;BME280;75147;50.294;18.660;2024-03-06T11:59:26;99501.13;;;4.34;79.57
84289;BME280;75147;50.294;18.660;2024-03-06T12:01:53;99491.13;;;4.28;80.02
84289;BME280;75147;50.294;18.660;2024-03-06T12:04:19;99490.59;;;4.21;80.27
84289;BME280;75147;50.294;18.660;2024-03-06T12:06:45;99489.22;;;4.14;80.20
84289;BME280;75147;50.294;18.660;2024-03-06T12:09:11;99485.13;;;4.10;80.84
84289;BME280;75147;50.294;18.660;2024-03-06T12:11:37;99482.69;;;4.07;81.46
84289;BME280;75147;50.294;18.660;2024-03-06T12:14:03;99480.28;;;4.04;81.96
84289;BME280;75147;50.294;18.660;2024-03-06T12:16:29;99480.34;;;4.03;82.40
84289;BME280;75147;50.294;18.660;2024-03-06T12:18:58;99474.38;;;4.02;83.00
84289;BME280;75147;50.294;18.660;2024-03-06T12:21:33;99473.69;;;3.98;82.83
84289;BME280;75147;50.294;18.660;2024-03-06T12:24:06;99478.00;;;3.98;83.17
84289;BME280;75147;50.294;18.660;2024-03-06T12:26:32;99474.66;;;3.96;83.47
84289;BME280;75147;50.294;18.660;2024-03-06T12:29:08;99481.75;;;3.91;84.04
84289;BME280;75147;50.294;18.660;2024-03-06T12:31:35;99477.59;;;3.88;84.19
84289;BME280;75147;50.294;18.660;2024-03-06T12:34:01;99474.28;;;3.86;83.99
84289;BME280;75147;50.294;18.660;2024-03-06T12:36:30;99481.22;;;3.84;84.42
84289;BME280;75147;50.294;18.660;2024-03-06T12:38:58;99478.03;;;3.79;84.24
84289;BME280;75147;50.294;18.660;2024-03-06T12:41:24;99482.25;;;3.80;84.29
84289;BME280;75147;50.294;18.660;2024-03-06T12:43:51;99486.75;;;3.75;84.49
84289;BME280;75147;50.294;18.660;2024-03-06T12:46:17;99491.06;;;3.75;84.72
84289;BME280;75147;50.294;18.660;2024-03-06T12:48:42;99493.78;;;3.72;84.50
84289;BME280;75147;50.294;18.660;2024-03-06T12:51:07;99490.31;;;3.73;85.40
84289;BME280;75147;50.294;18.660;2024-03-06T12:53:33;99498.97;;;3.70;85.87